Time;durP1;ratioP1;P1;durP2;ratioP2;P2;SDS_P1;SDS_P2;PMS_P1;PMS_P2;Temp;Humidity;BMP_temperature;BMP_pressure;BME280_temperature;BME280_humidity;BME280_pressure;Samples;Min_cycle;Max_cycle;Signal;HPM_P1;HPM_P2
2022/12/05 00:00:53;;;;;;;19.03;11.80;;;6.20;99.90;;;;;;4959407;28;20497;-76
2022/12/05 00:03:22;;;;;;;17.00;11.27;;;6.20;99.90;;;;;;4975647;28;20484;-76
2022/12/05 00:05:48;;;;;;;19.87;11.80;;;6.20;99.90;;;;;;4975772;28;20514;-77
2022/12/05 00:08:17;;;;;;;22.03;12.07;;;6.20;99.90;;;;;;4993054;28;20801;-77
2022/12/05 00:10:43;;;;;;;21.43;12.20;;;6.20;99.90;;;;;;4974987;28;20526;-76
2022/12/05 00:13:09;;;;;;;22.43;12.70;;;6.20;99.90;;;;;;4975864;28;20427;-76
2022/12/05 00:15:39;;;;;;;19.73;12.10;;;6.20;99.90;;;;;;4959723;28;20451;-76
2022/12/05 00:18:08;;;;;;;15.10;10.70;;;6.20;99.90;;;;;;4959441;28;20468;-76
2022/12/05 00:20:34;;;;;;;17.27;11.30;;;6.20;99.90;;;;;;4975457;28;20903;-76
2022/12/05 00:23:05;;;;;;;18.80;10.87;;;6.20;99.90;;;;;;4960192;28;20473;-77
2022/12/05 00:25:35;;;;;;;17.05;10.88;;;6.20;99.90;;;;;;4944065;28;20656;-76
2022/12/05 00:28:03;;;;;;;18.10;13.00;;;6.20;99.90;;;;;;4992032;28;20164;-76
2022/12/05 00:30:31;;;;;;;15.80;10.50;;;6.20;99.90;;;;;;4955743;28;20460;-76
2022/12/05 00:32:57;;;;;;;18.43;10.93;;;6.20;99.90;;;;;;4956169;28;20998;-76
2022/12/05 00:35:24;;;;;;;18.10;11.40;;;6.20;99.90;;;;;;4956222;28;20428;-76
2022/12/05 00:37:50;;;;;;;17.10;11.40;;;6.20;99.90;;;;;;4956217;28;20481;-76
2022/12/05 00:40:18;;;;;;;21.60;12.93;;;6.20;99.90;;;;;;4982931;28;20549;-76
2022/12/05 00:42:44;;;;;;;19.37;12.37;;;6.20;99.90;;;;;;4959366;28;20513;-76
2022/12/05 00:45:14;;;;;;;18.58;11.45;;;6.20;99.90;;;;;;4957912;28;20906;-77
2022/12/05 00:47:39;;;;;;;21.73;12.17;;;6.20;99.90;;;;;;4975516;28;20234;-77
2022/12/05 00:50:08;;;;;;;17.27;12.10;;;6.20;99.90;;;;;;4975425;28;20447;-76
2022/12/05 00:52:36;;;;;;;19.83;12.50;;;6.20;99.90;;;;;;4992630;28;20492;-77
2022/12/05 00:55:02;;;;;;;19.70;12.90;;;6.20;99.90;;;;;;4992588;28;20494;-76
2022/12/05 00:57:29;;;;;;;19.07;12.43;;;6.20;99.90;;;;;;4943390;28;20789;-76
2022/12/05 00:59:57;;;;;;;22.33;12.70;;;6.20;99.90;;;;;;4975017;28;20502;-76
2022/12/05 01:02:25;;;;;;;18.30;12.43;;;6.20;99.90;;;;;;4991288;28;20574;-76
2022/12/05 01:04:53;;;;;;;22.20;12.80;;;6.20;99.90;;;;;;4992219;28;20412;-76
2022/12/05 01:07:22;;;;;;;20.63;12.68;;;6.20;99.90;;;;;;4976813;28;20211;-76
2022/12/05 01:09:50;;;;;;;22.40;13.00;;;6.20;99.90;;;;;;4995185;28;20629;-76
2022/12/05 01:12:18;;;;;;;18.57;12.00;;;6.20;99.90;;;;;;4978487;28;20448;-76
2022/12/05 01:14:49;;;;;;;20.93;13.50;;;6.20;99.90;;;;;;4994706;28;20452;-77
2022/12/05 01:17:15;;;;;;;21.88;12.90;;;6.20;99.90;;;;;;4995966;28;20446;-76
2022/12/05 01:19:41;;;;;;;20.30;12.93;;;6.20;99.90;;;;;;4962476;28;20165;-76
2022/12/05 01:22:07;;;;;;;19.20;12.17;;;6.20;99.90;;;;;;4994749;28;20956;-76
2022/12/05 01:24:37;;;;;;;20.80;13.33;;;6.20;99.90;;;;;;4995614;28;20494;-76
2022/12/05 01:27:03;;;;;;;21.63;12.98;;;6.20;99.90;;;;;;4994531;28;20416;-76
2022/12/05 01:29:32;;;;;;;17.73;12.30;;;6.20;99.90;;;;;;4994538;28;20216;-76
2022/12/05 01:31:58;;;;;;;20.20;12.80;;;6.20;99.90;;;;;;4978850;28;20995;-76
2022/12/05 01:34:24;;;;;;;25.40;12.77;;;6.20;99.90;;;;;;4978306;28;20409;-76
2022/12/05 01:36:50;;;;;;;21.30;13.97;;;6.20;99.90;;;;;;4995566;28;20458;-77
2022/12/05 01:39:18;;;;;;;20.47;13.07;;;6.20;99.90;;;;;;4991044;28;20411;-77
2022/12/05 01:41:46;;;;;;;21.90;14.00;;;6.20;99.90;;;;;;4958802;28;20597;-76
2022/12/05 01:44:12;;;;;;;22.30;11.97;;;6.20;99.90;;;;;;4958164;28;20439;-74
2022/12/05 01:46:46;;;;;;;18.37;12.07;;;6.20;99.90;;;;;;4958242;28;20800;-74
2022/12/05 01:49:25;;;;;;;17.27;12.10;;;6.20;99.90;;;;;;4942131;28;20491;-74
2022/12/05 01:51:56;;;;;;;19.33;12.50;;;6.20;99.90;;;;;;4957891;28;21013;-75
2022/12/05 01:54:30;;;;;;;20.33;11.87;;;6.20;99.90;;;;;;4958079;28;20828;-74
2022/12/05 01:57:05;;;;;;;17.80;11.90;;;6.20;99.90;;;;;;4973796;28;20477;-75
2022/12/05 01:59:37;;;;;;;21.27;13.73;;;6.20;99.90;;;;;;4957937;28;20405;-73
2022/12/05 02:02:06;;;;;;;18.60;12.43;;;6.20;99.90;;;;;;4989178;28;20206;-74
2022/12/05 02:04:48;;;;;;;22.02;13.30;;;6.20;99.90;;;;;;4976778;28;20443;-74
2022/12/05 02:07:18;;;;;;;21.67;13.73;;;6.20;99.90;;;;;;4977424;28;20167;-74
2022/12/05 02:09:46;;;;;;;19.02;13.02;;;6.20;99.90;;;;;;4977338;28;20313;-75
2022/12/05 02:12:14;;;;;;;17.63;11.97;;;6.20;99.90;;;;;;4960922;28;20569;-75
2022/12/05 02:15:09;;;;;;;18.90;11.83;;;6.20;99.90;;;;;;4994393;28;20927;-75
2022/12/05 02:18:02;;;;;;;19.30;13.27;;;6.20;99.90;;;;;;4993905;28;20501;-75
2022/12/05 02:20:49;;;;;;;20.13;12.77;;;6.20;99.90;;;;;;4976823;28;20442;-74
2022/12/05 02:23:26;;;;;;;18.33;11.03;;;6.20;99.90;;;;;;4994267;28;20443;-74
2022/12/05 02:26:08;;;;;;;21.95;13.20;;;6.20;99.90;;;;;;4977083;28;20497;-74
2022/12/05 02:28:44;;;;;;;15.80;11.90;;;6.20;99.90;;;;;;4993317;28;20251;-75
2022/12/05 02:31:29;;;;;;;18.77;12.20;;;6.20;99.90;;;;;;4976400;28;20432;-74
2022/12/05 02:34:21;;;;;;;19.40;12.80;;;6.20;99.90;;;;;;4993062;28;20431;-75
2022/12/05 02:37:25;;;;;;;20.53;13.33;;;6.20;99.90;;;;;;4994168;28;20450;-75
2022/12/05 02:40:24;;;;;;;20.07;13.80;;;6.20;99.90;;;;;;4965279;28;20447;-74
2022/12/05 02:43:09;;;;;;;18.07;11.97;;;6.20;99.90;;;;;;4961437;28;20443;-75
2022/12/05 02:45:40;;;;;;;20.50;12.93;;;6.20;99.90;;;;;;4957202;28;20484;-75
2022/12/05 02:48:10;;;;;;;19.02;12.98;;;6.20;99.90;;;;;;4974212;28;20175;-75
2022/12/05 02:50:41;;;;;;;21.37;13.60;;;6.20;99.90;;;;;;4972964;28;20276;-75
2022/12/05 02:53:13;;;;;;;20.65;13.20;;;6.20;99.90;;;;;;4973235;28;20483;-74
2022/12/05 02:55:40;;;;;;;19.55;12.23;;;6.20;99.90;;;;;;4985325;28;20206;-75
2022/12/05 02:58:13;;;;;;;19.17;12.75;;;6.20;99.90;;;;;;4976535;28;20169;-75
2022/12/05 03:00:43;;;;;;;22.20;13.07;;;6.20;99.90;;;;;;4993288;28;20624;-74
2022/12/05 03:03:15;;;;;;;18.00;12.60;;;6.20;99.90;;;;;;4976354;28;20397;-75
2022/12/05 03:05:57;;;;;;;19.87;12.00;;;6.20;99.90;;;;;;4975923;28;20819;-75
2022/12/05 03:08:28;;;;;;;19.37;13.63;;;6.20;99.90;;;;;;4974631;28;20454;-75
2022/12/05 03:10:57;;;;;;;21.75;12.10;;;6.20;99.90;;;;;;4976061;28;20861;-75
2022/12/05 03:13:27;;;;;;;21.60;12.30;;;6.20;99.90;;;;;;4976059;28;20704;-75
2022/12/05 03:16:00;;;;;;;21.10;12.70;;;6.20;99.90;;;;;;4991320;28;20838;-74
2022/12/05 03:18:31;;;;;;;18.02;12.68;;;6.20;99.90;;;;;;4976189;28;20409;-74
2022/12/05 03:21:02;;;;;;;20.00;12.47;;;6.20;99.90;;;;;;4993268;28;20697;-75
2022/12/05 03:23:33;;;;;;;17.42;11.55;;;6.20;99.90;;;;;;4975877;28;20427;-75
2022/12/05 03:26:30;;;;;;;16.00;12.37;;;6.20;99.90;;;;;;4975633;28;20202;-74
2022/12/05 03:28:59;;;;;;;18.33;12.77;;;6.20;99.90;;;;;;4991909;28;20447;-74
2022/12/05 03:32:10;;;;;;;19.73;12.05;;;6.20;99.90;;;;;;4959625;28;20442;-75
2022/12/05 03:34:48;;;;;;;20.43;12.77;;;6.20;99.90;;;;;;4920429;29;20690;-75
2022/12/05 03:37:29;;;;;;;20.80;12.57;;;6.20;99.90;;;;;;4920198;29;20476;-75
2022/12/05 03:40:23;;;;;;;21.43;13.27;;;6.20;99.90;;;;;;4954067;28;20950;-74
2022/12/05 03:43:09;;;;;;;19.57;11.53;;;6.20;99.90;;;;;;4975560;28;20412;-75
2022/12/05 03:46:01;;;;;;;18.88;12.23;;;6.20;99.90;;;;;;4974735;28;20474;-75
2022/12/05 03:48:36;;;;;;;15.87;11.87;;;6.20;99.90;;;;;;4959252;28;20535;-74
2022/12/05 03:51:06;;;;;;;20.93;12.37;;;6.20;99.90;;;;;;4958804;28;20450;-74
2022/12/05 03:53:38;;;;;;;16.97;12.03;;;6.20;99.90;;;;;;4991596;28;20400;-75
2022/12/05 03:56:11;;;;;;;18.80;11.93;;;6.20;99.90;;;;;;4959072;28;20534;-75
2022/12/05 03:58:58;;;;;;;18.53;12.10;;;6.20;99.90;;;;;;4992644;28;20404;-74
2022/12/05 04:01:29;;;;;;;18.87;11.73;;;6.20;99.90;;;;;;4959466;28;20815;-74
2022/12/05 04:04:15;;;;;;;18.50;11.85;;;6.20;99.90;;;;;;4958949;28;20459;-75
2022/12/05 04:06:45;;;;;;;20.08;12.13;;;6.20;99.90;;;;;;4959071;28;20223;-75
2022/12/05 04:09:20;;;;;;;16.97;12.27;;;6.20;99.90;;;;;;4974641;28;20176;-74
2022/12/05 04:11:53;;;;;;;18.83;11.95;;;6.20;99.90;;;;;;4975330;28;20530;-74
2022/12/05 04:14:29;;;;;;;17.38;12.05;;;6.20;99.90;;;;;;4975125;28;20226;-75
2022/12/05 04:17:05;;;;;;;16.90;10.83;;;6.20;99.90;;;;;;4959130;28;20227;-74
2022/12/05 04:22:32;;;;;;;15.90;10.90;;;6.20;99.90;;;;;;4975037;28;20424;-75
2022/12/05 04:28:14;;;;;;;18.88;11.63;;;6.20;99.90;;;;;;4992215;28;20178;-74
2022/12/05 04:31:02;;;;;;;17.83;11.37;;;6.20;99.90;;;;;;4939658;28;20298;-75
2022/12/05 04:33:43;;;;;;;17.53;11.83;;;6.20;99.90;;;;;;4971880;28;20425;-75
2022/12/05 04:36:38;;;;;;;19.55;11.98;;;6.20;99.90;;;;;;4971450;28;20472;-73
2022/12/05 04:39:21;;;;;;;20.90;12.00;;;6.20;99.90;;;;;;4959387;28;20183;-74
2022/12/05 04:41:56;;;;;;;16.63;11.35;;;6.20;99.90;;;;;;4994787;28;20197;-75
2022/12/05 04:44:29;;;;;;;16.48;11.25;;;6.20;99.90;;;;;;4996027;28;20170;-74
2022/12/05 04:47:02;;;;;;;18.60;13.10;;;6.20;99.90;;;;;;4962460;28;20180;-75
2022/12/05 04:49:31;;;;;;;17.25;11.32;;;6.20;99.90;;;;;;4978063;28;20468;-74
2022/12/05 04:52:02;;;;;;;18.35;12.45;;;6.20;99.90;;;;;;4994858;28;20336;-75
2022/12/05 04:54:47;;;;;;;20.48;12.07;;;6.20;99.90;;;;;;4978723;28;20682;-75
2022/12/05 04:57:45;;;;;;;17.08;12.32;;;6.20;99.90;;;;;;4978299;28;20662;-74
2022/12/05 05:00:11;;;;;;;18.17;11.55;;;6.20;99.90;;;;;;4956081;28;20209;-75
2022/12/05 05:02:45;;;;;;;16.52;10.63;;;6.20;99.90;;;;;;4995865;28;20301;-75
2022/12/05 05:05:13;;;;;;;16.90;12.43;;;6.20;99.90;;;;;;4995937;28;20164;-75
2022/12/05 05:07:47;;;;;;;15.77;11.40;;;6.20;99.90;;;;;;4978294;28;20438;-75
2022/12/05 05:10:18;;;;;;;17.57;12.43;;;6.20;99.90;;;;;;4995456;28;20211;-75
2022/12/05 05:12:46;;;;;;;18.98;12.75;;;6.20;99.90;;;;;;4978473;28;20442;-75
2022/12/05 05:15:15;;;;;;;17.10;12.07;;;6.20;99.90;;;;;;4978388;28;20306;-75
2022/12/05 05:17:41;;;;;;;17.23;11.43;;;6.20;99.90;;;;;;4995643;28;20527;-75
2022/12/05 05:20:22;;;;;;;22.70;11.13;;;6.20;99.90;;;;;;4977973;28;20184;-74
2022/12/05 05:22:57;;;;;;;18.10;12.37;;;6.20;99.90;;;;;;4977938;28;20342;-75
2022/12/05 05:25:25;;;;;;;16.37;11.20;;;6.20;99.90;;;;;;4995471;28;20431;-75
2022/12/05 05:27:54;;;;;;;16.70;11.93;;;6.20;99.90;;;;;;4962184;28;20423;-75
2022/12/05 05:30:24;;;;;;;19.60;11.20;;;6.20;99.90;;;;;;4961499;28;20484;-74
2022/12/05 05:32:52;;;;;;;17.93;12.03;;;6.20;99.90;;;;;;4977413;28;20486;-76
2022/12/05 05:35:20;;;;;;;15.75;11.75;;;6.20;99.90;;;;;;4978177;28;20435;-75
2022/12/05 05:37:46;;;;;;;16.17;10.50;;;6.20;99.90;;;;;;4977796;28;20204;-75
2022/12/05 05:40:13;;;;;;;17.97;13.30;;;6.20;99.90;;;;;;4961237;28;20187;-75
2022/12/05 05:42:47;;;;;;;14.10;10.45;;;6.20;99.90;;;;;;4978259;28;20429;-74
2022/12/05 05:45:14;;;;;;;16.88;10.68;;;6.20;99.90;;;;;;4961675;28;20216;-77
2022/12/05 05:47:40;;;;;;;17.50;11.50;;;6.20;99.90;;;;;;4995189;28;20172;-76
2022/12/05 05:50:07;;;;;;;15.63;10.70;;;6.20;99.90;;;;;;4961516;28;20179;-74
2022/12/05 05:52:37;;;;;;;14.47;11.43;;;6.20;99.90;;;;;;4977031;28;20450;-74
2022/12/05 05:55:07;;;;;;;14.82;10.75;;;6.20;99.90;;;;;;4977837;28;20442;-74
2022/12/05 05:57:35;;;;;;;14.50;10.80;;;6.20;99.90;;;;;;4977497;28;20214;-75
2022/12/05 06:00:05;;;;;;;13.37;10.43;;;6.20;99.90;;;;;;4993378;28;20400;-74
2022/12/05 06:02:35;;;;;;;15.67;11.00;;;6.30;99.90;;;;;;4961658;28;20443;-74
2022/12/05 06:05:03;;;;;;;14.53;10.97;;;6.30;99.90;;;;;;4994866;28;20405;-74
2022/12/05 06:07:29;;;;;;;16.38;11.15;;;6.30;99.90;;;;;;4994656;28;20573;-75
2022/12/05 06:09:58;;;;;;;14.60;10.33;;;6.20;99.90;;;;;;4942469;28;20203;-74
2022/12/05 06:12:27;;;;;;;14.37;11.13;;;6.20;99.90;;;;;;4960881;28;20453;-74
2022/12/05 06:14:53;;;;;;;16.17;10.33;;;6.30;99.90;;;;;;4994477;28;20461;-74
2022/12/05 06:17:22;;;;;;;17.73;12.07;;;6.20;99.90;;;;;;4993718;28;20471;-74
2022/12/05 06:19:49;;;;;;;16.90;10.70;;;6.20;99.90;;;;;;4961178;28;20274;-74
2022/12/05 06:22:15;;;;;;;15.83;10.43;;;6.20;99.90;;;;;;4977033;28;20199;-75
2022/12/05 06:24:41;;;;;;;15.83;11.87;;;6.20;99.90;;;;;;4977096;28;20437;-74
2022/12/05 06:27:07;;;;;;;15.60;10.27;;;6.20;99.90;;;;;;4960928;28;20555;-74
2022/12/05 06:29:34;;;;;;;14.75;11.60;;;6.20;99.90;;;;;;4960852;28;20446;-75
2022/12/05 06:32:01;;;;;;;12.75;9.68;;;6.30;99.90;;;;;;4960948;28;20681;-74
2022/12/05 06:34:27;;;;;;;13.30;9.50;;;6.30;99.90;;;;;;4977042;28;20184;-74
2022/12/05 06:36:53;;;;;;;15.10;11.27;;;6.30;99.90;;;;;;4976613;28;20439;-74
2022/12/05 06:39:19;;;;;;;15.33;10.87;;;6.30;99.90;;;;;;4944563;28;20518;-74
2022/12/05 06:41:45;;;;;;;15.97;11.10;;;6.20;99.90;;;;;;4992793;28;20435;-74
2022/12/05 06:44:16;;;;;;;13.97;9.97;;;6.20;99.90;;;;;;4968561;28;20576;-74
2022/12/05 06:46:41;;;;;;;16.27;11.00;;;6.30;99.90;;;;;;4960706;28;20986;-73
2022/12/05 06:49:08;;;;;;;14.63;10.60;;;6.30;99.90;;;;;;4993030;28;20403;-73
2022/12/05 06:51:37;;;;;;;13.00;9.53;;;6.30;99.90;;;;;;4974755;28;20941;-73
2022/12/05 06:54:05;;;;;;;14.20;10.27;;;6.20;99.90;;;;;;4975670;28;20422;-73
2022/12/05 06:56:31;;;;;;;15.10;11.43;;;6.20;99.90;;;;;;4994261;28;20945;-73
2022/12/05 06:59:00;;;;;;;14.23;10.10;;;6.20;99.90;;;;;;4976327;28;20444;-73
2022/12/05 07:01:37;;;;;;;14.27;10.63;;;6.30;99.90;;;;;;4992311;28;20456;-73
2022/12/05 07:04:10;;;;;;;14.83;10.30;;;6.30;99.90;;;;;;4993305;28;20183;-73
2022/12/05 07:06:36;;;;;;;15.85;11.05;;;6.20;99.90;;;;;;4976221;28;20430;-73
2022/12/05 07:09:05;;;;;;;16.67;10.80;;;6.20;99.90;;;;;;4975783;28;20558;-73
2022/12/05 07:11:31;;;;;;;15.23;10.30;;;6.20;99.90;;;;;;4992934;28;20795;-73
2022/12/05 07:13:57;;;;;;;16.23;11.70;;;6.20;99.90;;;;;;4975992;28;20654;-73
2022/12/05 07:16:28;;;;;;;12.73;9.87;;;6.30;99.90;;;;;;4975837;28;20902;-73
2022/12/05 07:18:56;;;;;;;16.42;10.57;;;6.30;99.90;;;;;;4975707;28;20408;-73
2022/12/05 07:21:23;;;;;;;14.97;10.57;;;6.20;99.90;;;;;;4975704;28;20198;-73
2022/12/05 07:23:49;;;;;;;15.90;10.97;;;6.20;99.90;;;;;;4993184;28;20439;-73
2022/12/05 07:26:21;;;;;;;17.00;11.03;;;6.20;99.90;;;;;;4975882;28;20463;-73
2022/12/05 07:28:48;;;;;;;13.70;9.47;;;6.20;99.90;;;;;;4975878;28;20501;-73
2022/12/05 07:31:21;;;;;;;14.05;11.07;;;6.20;99.90;;;;;;4959704;28;20467;-72
2022/12/05 07:33:51;;;;;;;14.63;10.50;;;6.20;99.90;;;;;;4959819;28;20278;-73
2022/12/05 07:36:19;;;;;;;12.30;10.07;;;6.20;99.90;;;;;;4975364;28;20203;-73
2022/12/05 07:38:45;;;;;;;14.23;11.43;;;6.20;99.90;;;;;;4972325;28;20938;-73
2022/12/05 07:41:26;;;;;;;14.03;10.03;;;6.20;99.90;;;;;;4956101;28;20441;-73
2022/12/05 07:43:53;;;;;;;15.20;10.37;;;6.30;99.90;;;;;;4956128;28;20459;-73
2022/12/05 07:46:20;;;;;;;12.83;9.50;;;6.20;99.90;;;;;;4956296;28;20470;-73
2022/12/05 07:48:49;;;;;;;16.33;10.37;;;6.20;99.90;;;;;;4972292;28;20422;-73
2022/12/05 07:51:16;;;;;;;15.00;10.10;;;6.30;99.90;;;;;;4965081;28;20462;-72
2022/12/05 07:53:43;;;;;;;14.70;10.45;;;6.30;99.90;;;;;;4963615;28;20443;-74
2022/12/05 07:56:15;;;;;;;13.60;10.43;;;6.30;99.90;;;;;;4982568;28;20702;-74
2022/12/05 07:58:48;;;;;;;14.98;10.63;;;6.20;99.90;;;;;;4962352;28;20198;-74
2022/12/05 08:01:19;;;;;;;13.30;10.07;;;6.20;99.90;;;;;;4960777;28;20295;-74
2022/12/05 08:03:46;;;;;;;16.45;11.20;;;6.20;99.90;;;;;;4959128;28;20977;-74
2022/12/05 08:06:15;;;;;;;14.38;10.10;;;6.20;99.90;;;;;;4992025;28;20179;-74
2022/12/05 08:08:42;;;;;;;13.48;10.20;;;6.20;99.90;;;;;;4991175;28;20708;-74
2022/12/05 08:11:20;;;;;;;14.98;10.35;;;6.20;99.90;;;;;;4975034;28;20207;-74
2022/12/05 08:13:49;;;;;;;14.68;11.02;;;6.20;99.90;;;;;;4974868;28;20230;-74
2022/12/05 08:16:26;;;;;;;14.20;10.75;;;6.20;99.90;;;;;;4990755;28;20358;-74
2022/12/05 08:19:01;;;;;;;15.48;10.38;;;6.20;99.90;;;;;;4992460;28;20166;-74
2022/12/05 08:21:28;;;;;;;14.50;10.95;;;6.20;99.90;;;;;;4974487;28;20218;-74
2022/12/05 08:23:54;;;;;;;16.75;11.25;;;6.20;99.90;;;;;;4959082;28;20554;-74
2022/12/05 08:26:29;;;;;;;16.20;11.67;;;6.20;99.90;;;;;;4975579;28;20203;-74
2022/12/05 08:29:01;;;;;;;14.88;9.85;;;6.20;99.90;;;;;;4958987;28;20585;-74
2022/12/05 08:31:32;;;;;;;13.60;10.85;;;6.20;99.90;;;;;;4943035;28;20207;-74
2022/12/05 08:33:59;;;;;;;13.37;9.00;;;6.20;99.90;;;;;;4991819;28;20180;-74
2022/12/05 08:36:30;;;;;;;16.15;10.63;;;6.20;99.90;;;;;;4958206;28;20858;-74
2022/12/05 08:38:58;;;;;;;14.27;10.40;;;6.20;99.90;;;;;;4992036;28;20171;-74
2022/12/05 08:41:27;;;;;;;15.53;10.40;;;6.20;99.90;;;;;;4956816;28;20828;-74
2022/12/05 08:43:58;;;;;;;16.65;10.73;;;6.20;99.90;;;;;;4939846;28;20788;-74
2022/12/05 08:46:27;;;;;;;16.77;11.80;;;6.20;99.90;;;;;;4971349;28;20203;-74
2022/12/05 08:48:53;;;;;;;14.15;10.48;;;6.20;99.90;;;;;;4970989;28;20433;-74
2022/12/05 08:51:22;;;;;;;13.65;10.25;;;6.20;99.90;;;;;;4955299;28;20192;-74
2022/12/05 08:53:48;;;;;;;11.83;9.90;;;6.20;99.90;;;;;;4939614;28;20232;-74
2022/12/05 08:56:14;;;;;;;14.43;10.60;;;6.20;99.90;;;;;;4955003;28;20504;-74
2022/12/05 08:58:45;;;;;;;16.55;12.00;;;6.20;99.90;;;;;;4972705;28;20532;-74
2022/12/05 09:01:18;;;;;;;14.50;10.52;;;6.30;99.90;;;;;;4970853;28;20233;-74
2022/12/05 09:03:46;;;;;;;12.85;9.77;;;6.20;99.90;;;;;;4939569;28;20176;-73
2022/12/05 09:06:21;;;;;;;15.00;9.65;;;6.20;99.90;;;;;;4963844;28;20199;-74
2022/12/05 09:08:51;;;;;;;14.50;10.23;;;6.20;99.90;;;;;;4990078;28;20293;-74
2022/12/05 09:11:22;;;;;;;13.77;10.50;;;6.20;99.90;;;;;;4983636;28;20660;-73
2022/12/05 09:13:51;;;;;;;12.57;9.52;;;6.20;99.90;;;;;;4972109;28;20552;-74
2022/12/05 09:16:20;;;;;;;16.20;10.50;;;6.20;99.90;;;;;;4955184;28;20220;-74
2022/12/05 09:18:51;;;;;;;13.93;9.90;;;6.20;99.90;;;;;;4939659;28;20787;-74
2022/12/05 09:21:26;;;;;;;15.23;10.40;;;6.20;99.90;;;;;;4972372;28;20199;-74
2022/12/05 09:23:57;;;;;;;16.20;10.97;;;6.20;99.90;;;;;;4971994;28;20267;-74
2022/12/05 09:26:24;;;;;;;12.75;10.02;;;6.20;99.90;;;;;;4954852;28;20404;-74
2022/12/05 09:28:51;;;;;;;15.70;10.85;;;6.20;99.90;;;;;;4957706;28;20184;-74
2022/12/05 09:31:20;;;;;;;14.60;10.90;;;6.20;99.90;;;;;;4958026;28;20225;-75
2022/12/05 09:33:50;;;;;;;15.90;10.40;;;6.20;99.90;;;;;;4958961;28;20441;-76
2022/12/05 09:36:18;;;;;;;13.20;10.53;;;6.30;99.90;;;;;;4942332;28;20545;-76
2022/12/05 09:38:45;;;;;;;12.98;9.82;;;6.30;99.90;;;;;;4958561;28;20416;-76
2022/12/05 09:44:20;;;;;;;15.60;10.00;;;6.20;99.90;;;;;;4958940;28;20189;-75
2022/12/05 09:47:08;;;;;;;14.90;10.70;;;6.20;99.90;;;;;;4959517;28;20608;-75
2022/12/05 09:49:42;;;;;;;16.30;10.80;;;6.20;99.90;;;;;;4959972;28;20925;-75
2022/12/05 09:52:16;;;;;;;13.43;11.00;;;6.20;99.90;;;;;;4958587;28;20498;-75
2022/12/05 09:54:45;;;;;;;15.07;10.03;;;6.20;99.90;;;;;;4958532;28;20419;-75
2022/12/05 09:57:12;;;;;;;17.23;11.73;;;6.30;99.90;;;;;;4975843;28;20877;-76
2022/12/05 09:59:38;;;;;;;14.40;10.70;;;6.20;99.90;;;;;;4977150;28;20391;-76
2022/12/05 10:02:35;;;;;;;13.68;9.98;;;6.30;99.90;;;;;;4994854;28;20432;-75
2022/12/05 10:05:10;;;;;;;14.37;10.47;;;6.30;99.90;;;;;;4976569;28;20272;-75
2022/12/05 10:07:52;;;;;;;13.93;9.57;;;6.20;99.90;;;;;;4960983;28;20427;-76
2022/12/05 10:10:32;;;;;;;13.32;9.80;;;6.30;99.90;;;;;;4993242;28;20795;-76
2022/12/05 10:13:27;;;;;;;11.10;8.47;;;6.20;99.90;;;;;;4977899;28;20257;-76
2022/12/05 10:16:01;;;;;;;13.73;9.73;;;6.20;99.90;;;;;;4994346;28;20440;-75
2022/12/05 10:18:37;;;;;;;14.40;10.63;;;6.30;99.90;;;;;;4975103;28;20712;-76
2022/12/05 10:21:35;;;;;;;12.07;9.53;;;6.30;99.90;;;;;;4994197;28;20262;-76
2022/12/05 10:24:11;;;;;;;14.23;10.07;;;6.20;99.90;;;;;;4961057;28;20497;-76
2022/12/05 10:27:03;;;;;;;14.05;10.10;;;6.30;99.90;;;;;;4976298;28;20443;-75
2022/12/05 10:29:34;;;;;;;13.70;10.07;;;6.20;99.90;;;;;;4960226;28;20709;-76
2022/12/05 10:32:14;;;;;;;14.02;9.80;;;6.20;99.90;;;;;;4994259;28;20434;-76
2022/12/05 10:34:45;;;;;;;12.52;9.15;;;6.30;99.90;;;;;;4959991;28;20215;-75
2022/12/05 10:37:21;;;;;;;12.88;9.27;;;6.20;99.90;;;;;;4975567;28;20191;-76
2022/12/05 10:39:51;;;;;;;14.93;10.43;;;6.20;99.90;;;;;;4976075;28;20203;-76
2022/12/05 10:42:26;;;;;;;12.87;11.10;;;6.20;99.90;;;;;;4994164;28;20804;-76
2022/12/05 10:44:57;;;;;;;14.53;10.80;;;6.20;99.90;;;;;;4976581;28;20403;-74
2022/12/05 10:47:23;;;;;;;18.57;14.10;;;6.30;99.90;;;;;;4993802;28;20751;-73
2022/12/05 10:49:54;;;;;;;14.97;11.10;;;6.30;99.90;;;;;;4960736;28;20442;-73
2022/12/05 10:52:23;;;;;;;11.25;9.45;;;6.30;99.90;;;;;;4976186;28;20454;-74
2022/12/05 10:55:12;;;;;;;10.80;8.87;;;6.30;99.90;;;;;;4976599;28;20245;-74
2022/12/05 10:57:38;;;;;;;13.17;9.40;;;6.30;99.90;;;;;;4992405;28;20463;-73
2022/12/05 11:00:15;;;;;;;13.65;10.30;;;6.30;99.90;;;;;;4958696;28;20452;-74
2022/12/05 11:02:42;;;;;;;14.00;10.53;;;6.30;99.90;;;;;;4941256;28;20563;-73
2022/12/05 11:05:09;;;;;;;12.27;9.57;;;6.30;99.90;;;;;;4956495;28;20397;-74
2022/12/05 11:07:48;;;;;;;10.27;8.55;;;6.30;99.90;;;;;;4963291;28;20598;-74
2022/12/05 11:10:35;;;;;;;11.00;9.13;;;6.30;99.90;;;;;;4975088;28;20275;-73
2022/12/05 11:13:15;;;;;;;11.37;8.73;;;6.30;99.90;;;;;;4992510;28;20422;-74
2022/12/05 11:15:46;;;;;;;11.20;8.40;;;6.30;99.90;;;;;;4972950;28;20482;-73
2022/12/05 11:18:31;;;;;;;10.67;9.10;;;6.30;99.90;;;;;;4975295;28;20447;-72
2022/12/05 11:21:18;;;;;;;10.07;8.60;;;6.30;99.90;;;;;;4976066;28;20498;-72
2022/12/05 11:23:48;;;;;;;9.98;8.07;;;6.30;99.90;;;;;;4960060;28;20614;-73
2022/12/05 11:26:41;;;;;;;12.82;8.50;;;6.30;99.90;;;;;;4959787;28;20259;-72
2022/12/05 11:29:37;;;;;;;11.30;8.60;;;6.30;99.90;;;;;;4974731;28;20171;-72
2022/12/05 11:32:15;;;;;;;11.05;8.98;;;6.30;99.90;;;;;;4990872;28;20307;-75
2022/12/05 11:34:48;;;;;;;10.40;8.50;;;6.30;99.90;;;;;;4959932;28;20647;-75
2022/12/05 11:37:28;;;;;;;10.90;8.73;;;6.30;99.90;;;;;;4944588;28;20520;-77
2022/12/05 11:40:00;;;;;;;11.10;9.13;;;6.30;99.90;;;;;;4992702;28;20441;-76
2022/12/05 11:42:44;;;;;;;9.68;7.90;;;6.30;99.90;;;;;;4993200;28;20455;-76
2022/12/05 11:45:47;;;;;;;11.90;8.43;;;6.20;99.90;;;;;;4977106;28;20195;-76
2022/12/05 11:48:21;;;;;;;9.63;8.38;;;6.30;99.90;;;;;;4992508;28;20399;-75
2022/12/05 11:51:31;;;;;;;9.67;8.30;;;6.30;99.90;;;;;;4991680;28;20194;-75
2022/12/05 11:54:15;;;;;;;10.77;8.23;;;6.30;99.90;;;;;;4976551;28;20443;-76
2022/12/05 11:56:45;;;;;;;9.68;8.35;;;6.30;99.90;;;;;;4976648;28;20462;-78
2022/12/05 11:59:11;;;;;;;9.40;7.90;;;6.30;99.90;;;;;;4959265;28;20186;-77
2022/12/05 12:01:45;;;;;;;9.27;7.90;;;6.30;99.90;;;;;;4992814;28;20526;-76
2022/12/05 12:04:53;;;;;;;8.35;7.55;;;6.30;99.90;;;;;;4974625;28;20177;-76
2022/12/05 12:07:45;;;;;;;8.60;7.67;;;6.30;99.90;;;;;;4990805;28;20602;-75
2022/12/05 12:10:28;;;;;;;8.57;7.03;;;6.30;99.90;;;;;;4974808;28;20463;-77
2022/12/05 12:13:07;;;;;;;10.27;7.63;;;6.30;99.90;;;;;;4959989;28;20403;-74
2022/12/05 12:16:01;;;;;;;10.03;8.03;;;6.30;99.90;;;;;;4960069;28;20446;-74
2022/12/05 12:18:50;;;;;;;9.40;7.23;;;6.30;99.90;;;;;;4976241;28;20531;-74
2022/12/05 12:21:30;;;;;;;9.33;7.60;;;6.30;99.90;;;;;;4975625;28;20447;-74
2022/12/05 12:23:59;;;;;;;8.17;7.10;;;6.30;99.90;;;;;;4993393;28;20446;-74
2022/12/05 12:26:37;;;;;;;9.13;7.65;;;6.30;99.90;;;;;;4960062;28;20422;-74
2022/12/05 12:29:22;;;;;;;8.63;6.35;;;6.30;99.90;;;;;;4992136;28;20183;-74
2022/12/05 12:32:12;;;;;;;7.85;7.05;;;6.30;99.90;;;;;;4959693;28;20207;-74
2022/12/05 12:35:12;;;;;;;8.07;6.82;;;6.30;99.90;;;;;;4976132;28;20175;-74
2022/12/05 12:38:28;;;;;;;8.50;6.95;;;6.30;99.90;;;;;;4975583;28;20211;-74
2022/12/05 12:41:13;;;;;;;8.70;7.38;;;6.30;99.90;;;;;;4993061;28;20239;-74
2022/12/05 12:44:09;;;;;;;8.13;6.60;;;6.30;99.90;;;;;;4976055;28;20226;-74
2022/12/05 12:46:44;;;;;;;8.10;6.80;;;6.30;99.90;;;;;;4981936;28;20181;-74
2022/12/05 12:49:16;;;;;;;8.50;7.07;;;6.30;99.90;;;;;;4956626;28;20477;-74
2022/12/05 12:51:53;;;;;;;10.70;7.80;;;6.30;99.90;;;;;;4989707;28;20747;-74
2022/12/05 12:54:44;;;;;;;9.23;7.20;;;6.30;99.90;;;;;;4973267;28;20471;-74
2022/12/05 12:57:28;;;;;;;8.50;7.30;;;6.30;99.90;;;;;;4955990;28;20578;-74
2022/12/05 13:00:10;;;;;;;12.15;7.53;;;6.20;99.90;;;;;;4980240;28;20182;-75
2022/12/05 13:02:42;;;;;;;9.75;7.55;;;6.30;99.90;;;;;;4977518;28;20590;-72
2022/12/05 13:05:45;;;;;;;8.07;6.35;;;6.30;99.90;;;;;;4963578;28;20176;-74
2022/12/05 13:08:36;;;;;;;7.10;6.25;;;6.30;99.90;;;;;;4979500;28;20173;-74
2022/12/05 13:11:07;;;;;;;9.33;7.23;;;6.30;99.90;;;;;;4963088;28;20310;-74
2022/12/05 13:13:39;;;;;;;9.80;7.07;;;6.30;99.90;;;;;;4957873;28;20868;-74
2022/12/05 13:16:07;;;;;;;8.52;7.10;;;6.20;99.90;;;;;;4961151;28;20480;-74
2022/12/05 13:18:34;;;;;;;7.85;6.93;;;6.30;99.90;;;;;;4962546;28;20211;-74
2022/12/05 13:21:06;;;;;;;8.97;7.47;;;6.30;99.90;;;;;;4996336;28;20255;-74
2022/12/05 13:23:39;;;;;;;9.50;7.20;;;6.30;99.90;;;;;;4962704;28;20414;-74